Overview Statistics Trail Chart Weather Telemetry Raw packets
 

This is the latest recevied weather packets stored in our database for station/object N5JXS. If no packets are shown the sender has not sent any weather packets the latest 10 day(s).

<< 60 61 62 63 64 65 66 >>
Time Temp. Humidity Pressure Rain* Wind** Luminosity Snow
1788206776 21.67° C 43% 1028.2 hPa 0 mm - 106 W/m² -
1788206476 21.11° C 42% 1028.6 hPa 0 mm - 124 W/m² -
1788206172 21.11° C 42% 1028.2 hPa 0 mm - 140 W/m² -
1788205867 22.22° C 39% 1028.7 hPa 0 mm - 150 W/m² -
1788205562 22.22° C 38% 1028.5 hPa 0 mm - 129 W/m² -
1788205256 22.78° C 39% 1028.3 hPa 0 mm - 157 W/m² -
1788204952 23.33° C 36% 1028.2 hPa 0 mm - 154 W/m² -
1788204652 23.33° C 37% 1028.1 hPa 0 mm - 137 W/m² -
1788204347 23.33° C 35% 1028.3 hPa 0 mm - 190 W/m² -
1788204042 23.33° C 36% 1028.1 hPa 0 mm - 152 W/m² -
1788203738 23.33° C 34% 1028.5 hPa 0 mm - 154 W/m² -
1788203434 23.89° C 33% 1028.5 hPa 0 mm - 206 W/m² -
1788203129 23.89° C 34% 1028.3 hPa 0 mm - 185 W/m² -
1788202827 23.89° C 32% 1028.7 hPa 0 mm - 135 W/m² -
1788202523 23.89° C 34% 1028.5 hPa 0 mm - 200 W/m² -
1788202223 23.89° C 34% 1028.8 hPa 0 mm - 271 W/m² -
1788201913 23.89° C 34% 1028.7 hPa 0 mm - 260 W/m² -
1788201609 23.89° C 32% 1029 hPa 0 mm - 269 W/m² -
1788201311 23.89° C 32% 1029 hPa 0 mm - 262 W/m² -
1788201007 23.89° C 33% 1028.8 hPa 0 mm - 259 W/m² -
1788200702 23.89° C 32% 1028.7 hPa 0 mm - 234 W/m² -
1788200397 23.89° C 31% 1029 hPa 0 mm - 462 W/m² -
1788200087 23.89° C 32% 1028.8 hPa 0 mm - 269 W/m² -
1788199782 24.44° C 32% 1029.1 hPa 0 mm - 222 W/m² -
1788199476 23.89° C 30% 1028.8 hPa 0 mm - 245 W/m² -

* Rain latest hour (hover to see other rain measurements)
** Current wind speed in m/s (hover to see current wind gust speed)